Time;durP1;ratioP1;P1;durP2;ratioP2;P2;SDS_P1;SDS_P2;PMS_P1;PMS_P2;Temp;Humidity;BMP_temperature;BMP_pressure;BME280_temperature;BME280_humidity;BME280_pressure;Samples;Min_cycle;Max_cycle;Signal;HPM_P1;HPM_P2
2022/08/01 00:01:44;;;;;;;1.57;0.70;;;;;;;;;;5047591;28;20056;-73
2022/08/01 00:04:10;;;;;;;1.40;0.53;;;;;;;;;;5027917;28;20136;-73
2022/08/01 00:06:37;;;;;;;5.50;0.53;;;;;;;;;;5030031;28;20021;-73
2022/08/01 00:09:04;;;;;;;1.70;0.67;;;;;;;;;;5032992;28;20076;-73
2022/08/01 00:11:30;;;;;;;1.73;0.70;;;;;;;;;;5032841;28;20021;-73
2022/08/01 00:13:57;;;;;;;3.53;0.80;;;;;;;;;;5033051;28;20033;-73
2022/08/01 00:16:24;;;;;;;1.17;0.43;;;;;;;;;;5033704;28;20032;-73
2022/08/01 00:18:51;;;;;;;2.53;0.70;;;;;;;;;;5030214;28;20026;-72
2022/08/01 00:21:18;;;;;;;1.10;0.43;;;;;;;;;;5027410;28;20033;-72
2022/08/01 00:23:45;;;;;;;1.73;0.63;;;;;;;;;;5027337;28;20014;-72
2022/08/01 00:26:13;;;;;;;1.63;0.83;;;;;;;;;;5040798;28;20028;-73
2022/08/01 00:28:40;;;;;;;1.87;0.67;;;;;;;;;;5049081;28;20024;-73
2022/08/01 00:31:07;;;;;;;1.57;0.80;;;;;;;;;;5052662;28;20407;-75
2022/08/01 00:33:34;;;;;;;1.73;0.90;;;;;;;;;;5052604;28;20025;-75
2022/08/01 00:36:00;;;;;;;0.37;0.23;;;;;;;;;;5040112;28;20059;-74
2022/08/01 00:38:27;;;;;;;0.90;0.70;;;;;;;;;;5032516;28;20033;-74
2022/08/01 00:40:54;;;;;;;1.63;0.77;;;;;;;;;;5030439;28;20082;-74
2022/08/01 00:43:20;;;;;;;1.20;0.80;;;;;;;;;;5027038;28;20073;-73
2022/08/01 00:45:47;;;;;;;0.63;0.53;;;;;;;;;;5048157;28;20069;-73
2022/08/01 00:48:14;;;;;;;0.97;0.70;;;;;;;;;;5067094;28;20511;-73
2022/08/01 00:50:41;;;;;;;3.07;1.17;;;;;;;;;;5068339;28;20367;-73
2022/08/01 00:53:08;;;;;;;9.43;1.17;;;;;;;;;;5071991;28;20449;-73
2022/08/01 00:55:34;;;;;;;2.30;1.00;;;;;;;;;;5063735;28;20021;-73
2022/08/01 00:58:01;;;;;;;1.30;0.77;;;;;;;;;;5052139;28;20497;-73
2022/08/01 01:00:28;;;;;;;3.23;0.70;;;;;;;;;;5062758;28;20024;-73
2022/08/01 01:02:55;;;;;;;3.63;0.93;;;;;;;;;;5052837;28;20384;-73
2022/08/01 01:05:21;;;;;;;0.83;0.63;;;;;;;;;;5046600;28;20052;-73
2022/08/01 01:08:03;;;;;;;1.93;0.80;;;;;;;;;;5046681;28;20047;-73
2022/08/01 01:10:33;;;;;;;0.97;0.70;;;;;;;;;;5059050;28;20173;-73
2022/08/01 01:13:02;;;;;;;1.93;1.10;;;;;;;;;;5067848;28;20025;-73
2022/08/01 01:15:33;;;;;;;2.43;1.00;;;;;;;;;;5072018;28;20016;-73
2022/08/01 01:18:20;;;;;;;1.07;0.87;;;;;;;;;;5072146;28;20099;-72
2022/08/01 01:20:52;;;;;;;1.53;0.80;;;;;;;;;;5056645;28;20124;-72
2022/08/01 01:23:21;;;;;;;0.63;0.50;;;;;;;;;;5051913;28;20037;-72
2022/08/01 01:25:51;;;;;;;1.50;0.60;;;;;;;;;;5049245;28;20035;-73
2022/08/01 01:28:22;;;;;;;3.53;0.70;;;;;;;;;;5046450;28;20021;-73
2022/08/01 01:30:51;;;;;;;0.63;0.50;;;;;;;;;;5042764;28;20387;-73
2022/08/01 01:33:18;;;;;;;0.87;0.43;;;;;;;;;;5066545;28;20032;-73
2022/08/01 01:35:49;;;;;;;0.77;0.50;;;;;;;;;;5068427;28;20079;-73
2022/08/01 01:38:18;;;;;;;0.07;0.07;;;;;;;;;;5072009;28;20013;-73
2022/08/01 01:40:46;;;;;;;2.13;0.30;;;;;;;;;;5057317;28;20423;-73
2022/08/01 01:43:13;;;;;;;0.10;0.10;;;;;;;;;;5051685;28;20116;-73
2022/08/01 01:45:41;;;;;;;0.80;0.40;;;;;;;;;;5051704;28;20103;-73
2022/08/01 01:48:08;;;;;;;0.03;0.03;;;;;;;;;;5048816;28;20029;-73
2022/08/01 01:50:36;;;;;;;1.53;0.37;;;;;;;;;;5058599;28;20094;-73
2022/08/01 01:53:04;;;;;;;0.47;0.20;;;;;;;;;;5066010;28;20037;-73
2022/08/01 01:55:32;;;;;;;0.80;0.33;;;;;;;;;;5066213;28;20085;-73
2022/08/01 01:57:59;;;;;;;0.53;0.20;;;;;;;;;;5063601;28;20111;-72
2022/08/01 02:00:26;;;;;;;0.63;0.30;;;;;;;;;;5051547;28;20079;-72
2022/08/01 02:02:54;;;;;;;0.63;0.20;;;;;;;;;;5051163;28;20094;-73
2022/08/01 02:05:21;;;;;;;0.40;0.30;;;;;;;;;;5051594;28;20055;-72
2022/08/01 02:07:49;;;;;;;0.10;0.10;;;;;;;;;;5052458;28;20078;-72
2022/08/01 02:10:17;;;;;;;0.73;0.10;;;;;;;;;;5048968;28;20029;-73
2022/08/01 02:12:45;;;;;;;0.13;0.10;;;;;;;;;;5048932;28;20123;-73
2022/08/01 02:15:13;;;;;;;1.50;0.50;;;;;;;;;;5049772;28;20032;-73
2022/08/01 02:17:42;;;;;;;0.10;0.10;;;;;;;;;;5059151;28;20364;-73
2022/08/01 02:20:09;;;;;;;0.43;0.20;;;;;;;;;;5071090;28;20031;-73
2022/08/01 02:22:42;;;;;;;0.87;0.30;;;;;;;;;;5074928;28;20454;-72
2022/08/01 02:25:19;;;;;;;0.80;0.10;;;;;;;;;;5074977;28;20078;-73
2022/08/01 02:27:55;;;;;;;0.20;0.10;;;;;;;;;;5063896;28;20032;-72
2022/08/01 02:30:24;;;;;;;1.60;0.37;;;;;;;;;;5054512;28;20112;-73
2022/08/01 02:32:54;;;;;;;0.47;0.37;;;;;;;;;;5052085;28;20103;-73
2022/08/01 02:35:24;;;;;;;1.00;0.40;;;;;;;;;;5049445;28;20032;-73
2022/08/01 02:37:51;;;;;;;0.10;0.10;;;;;;;;;;5059759;28;20064;-73
2022/08/01 02:40:18;;;;;;;1.70;0.33;;;;;;;;;;5069277;28;20118;-72
2022/08/01 02:42:48;;;;;;;1.57;0.60;;;;;;;;;;5071427;28;20059;-73
2022/08/01 02:45:15;;;;;;;1.07;0.43;;;;;;;;;;5074260;28;20029;-73
2022/08/01 02:47:43;;;;;;;4.20;0.60;;;;;;;;;;5060488;28;20063;-72
2022/08/01 02:50:13;;;;;;;1.43;0.73;;;;;;;;;;5054517;28;20025;-73
2022/08/01 02:52:41;;;;;;;0.67;0.40;;;;;;;;;;5054418;28;20104;-73
2022/08/01 02:55:08;;;;;;;1.97;0.80;;;;;;;;;;5051507;28;20039;-73
2022/08/01 02:57:37;;;;;;;0.33;0.30;;;;;;;;;;5065197;28;20502;-72
2022/08/01 03:00:05;;;;;;;0.90;0.30;;;;;;;;;;5068499;28;20463;-73
2022/08/01 03:02:33;;;;;;;3.03;0.70;;;;;;;;;;5068609;28;20031;-72
2022/08/01 03:05:00;;;;;;;0.63;0.30;;;;;;;;;;5070964;28;20033;-72
2022/08/01 03:07:27;;;;;;;0.73;0.30;;;;;;;;;;5058531;28;20036;-73
2022/08/01 03:09:53;;;;;;;0.37;0.20;;;;;;;;;;5054116;28;20384;-72
2022/08/01 03:12:22;;;;;;;0.03;0.03;;;;;;;;;;5054228;28;20024;-73
2022/08/01 03:14:50;;;;;;;2.37;0.40;;;;;;;;;;5054026;28;20605;-73
2022/08/01 03:17:18;;;;;;;0.60;0.30;;;;;;;;;;5064708;28;20032;-73
2022/08/01 03:19:46;;;;;;;0.10;0.10;;;;;;;;;;5068348;28;20315;-73
2022/08/01 03:22:14;;;;;;;0.10;0.10;;;;;;;;;;5068307;28;20479;-73
2022/08/01 03:24:42;;;;;;;0.00;0.00;;;;;;;;;;5067653;28;20021;-72
2022/08/01 03:27:09;;;;;;;0.00;0.00;;;;;;;;;;5057509;28;20495;-72
2022/08/01 03:29:37;;;;;;;0.20;0.10;;;;;;;;;;5053861;28;20036;-72
2022/08/01 03:32:05;;;;;;;0.20;0.10;;;;;;;;;;5053375;28;20075;-73
2022/08/01 03:34:32;;;;;;;0.13;0.10;;;;;;;;;;5054566;28;20507;-73
2022/08/01 03:37:04;;;;;;;0.27;0.17;;;;;;;;;;5053603;28;20095;-72
2022/08/01 03:39:35;;;;;;;0.00;0.00;;;;;;;;;;5051404;28;20452;-72
2022/08/01 03:42:05;;;;;;;2.73;0.40;;;;;;;;;;5048294;28;20036;-72
2022/08/01 03:44:34;;;;;;;1.63;0.60;;;;;;;;;;5049067;28;20064;-73
2022/08/01 03:47:03;;;;;;;0.10;0.10;;;;;;;;;;5048007;28;20106;-72
2022/08/01 03:49:33;;;;;;;0.40;0.33;;;;;;;;;;5050821;28;20040;-72
2022/08/01 03:52:03;;;;;;;0.43;0.33;;;;;;;;;;5035466;28;20422;-73
2022/08/01 03:54:33;;;;;;;0.80;0.60;;;;;;;;;;5053144;28;20064;-72
2022/08/01 03:57:01;;;;;;;1.07;0.50;;;;;;;;;;5053122;28;20368;-72
2022/08/01 03:59:28;;;;;;;0.40;0.20;;;;;;;;;;5062075;28;20036;-72
2022/08/01 04:01:56;;;;;;;0.47;0.30;;;;;;;;;;5055194;28;20069;-73
2022/08/01 04:04:23;;;;;;;1.43;0.50;;;;;;;;;;5047806;28;20481;-73
2022/08/01 04:06:53;;;;;;;0.10;0.10;;;;;;;;;;5047640;28;20078;-73
2022/08/01 04:09:21;;;;;;;2.63;0.70;;;;;;;;;;5055278;28;20035;-72
2022/08/01 04:11:48;;;;;;;2.50;0.77;;;;;;;;;;5069244;28;20367;-72
2022/08/01 04:14:15;;;;;;;0.07;0.07;;;;;;;;;;5072806;28;20028;-72
2022/08/01 04:16:42;;;;;;;0.23;0.20;;;;;;;;;;5072307;28;20345;-73
2022/08/01 04:19:08;;;;;;;0.57;0.30;;;;;;;;;;5064945;28;20452;-73
2022/08/01 04:21:36;;;;;;;0.00;0.00;;;;;;;;;;5052639;28;20025;-73
2022/08/01 04:24:05;;;;;;;0.27;0.20;;;;;;;;;;5050653;28;20613;-73
2022/08/01 04:26:33;;;;;;;0.30;0.23;;;;;;;;;;5047510;28;20036;-73
2022/08/01 04:29:02;;;;;;;0.20;0.17;;;;;;;;;;5047425;28;20028;-73
2022/08/01 04:31:29;;;;;;;0.10;0.10;;;;;;;;;;5054781;28;20210;-73
2022/08/01 04:33:56;;;;;;;0.20;0.10;;;;;;;;;;5068732;28;20029;-72
2022/08/01 04:36:24;;;;;;;0.37;0.20;;;;;;;;;;5071716;28;20050;-73
2022/08/01 04:38:53;;;;;;;1.20;0.57;;;;;;;;;;5070827;28;20114;-73
2022/08/01 04:41:20;;;;;;;0.10;0.10;;;;;;;;;;5072512;28;20600;-73
2022/08/01 04:43:47;;;;;;;0.73;0.30;;;;;;;;;;5072502;28;20066;-73
2022/08/01 04:46:14;;;;;;;0.20;0.20;;;;;;;;;;5070692;28;20100;-72
2022/08/01 04:48:41;;;;;;;0.10;0.10;;;;;;;;;;5050956;28;20480;-73
2022/08/01 04:51:21;;;;;;;0.47;0.37;;;;;;;;;;5048233;28;20049;-72
2022/08/01 04:53:50;;;;;;;0.33;0.20;;;;;;;;;;5047128;28;20067;-71
2022/08/01 04:56:17;;;;;;;0.40;0.20;;;;;;;;;;5065167;28;20052;-70
2022/08/01 04:58:44;;;;;;;0.23;0.20;;;;;;;;;;5072162;28;20031;-72
2022/08/01 05:01:11;;;;;;;0.00;0.00;;;;;;;;;;5046862;28;20380;-72
2022/08/01 05:03:38;;;;;;;0.90;0.40;;;;;;;;;;5061858;28;20039;-71
2022/08/01 05:06:05;;;;;;;0.47;0.20;;;;;;;;;;5066799;28;20052;-71
2022/08/01 05:08:32;;;;;;;0.10;0.10;;;;;;;;;;5050525;28;20495;-72
2022/08/01 05:10:58;;;;;;;0.27;0.10;;;;;;;;;;5061517;28;20476;-74
2022/08/01 05:13:25;;;;;;;0.10;0.10;;;;;;;;;;5066810;28;20020;-74
2022/08/01 05:15:52;;;;;;;0.30;0.20;;;;;;;;;;5047916;28;20356;-74
2022/08/01 05:18:19;;;;;;;0.40;0.20;;;;;;;;;;5067070;28;20052;-74
2022/08/01 05:20:47;;;;;;;0.13;0.10;;;;;;;;;;5072048;28;20063;-73
2022/08/01 05:23:13;;;;;;;0.40;0.20;;;;;;;;;;5072120;28;20067;-73
2022/08/01 05:25:40;;;;;;;0.37;0.27;;;;;;;;;;5072175;28;20074;-73
2022/08/01 05:28:07;;;;;;;0.43;0.27;;;;;;;;;;5068625;28;20063;-73
2022/08/01 05:30:33;;;;;;;0.30;0.30;;;;;;;;;;5050899;28;20021;-73
2022/08/01 05:33:00;;;;;;;0.20;0.20;;;;;;;;;;5046474;28;20380;-73
2022/08/01 05:35:27;;;;;;;0.23;0.10;;;;;;;;;;5046086;28;20549;-73
2022/08/01 05:37:53;;;;;;;6.80;0.40;;;;;;;;;;5046601;28;20021;-73
2022/08/01 05:40:20;;;;;;;0.20;0.20;;;;;;;;;;5053431;28;20036;-72
2022/08/01 05:42:47;;;;;;;0.10;0.10;;;;;;;;;;5071880;28;20110;-73
2022/08/01 05:45:14;;;;;;;0.53;0.30;;;;;;;;;;5071916;28;20044;-73
2022/08/01 05:47:41;;;;;;;0.33;0.30;;;;;;;;;;5074660;28;20028;-73
2022/08/01 05:50:08;;;;;;;0.30;0.27;;;;;;;;;;5075624;28;20052;-73
2022/08/01 05:52:34;;;;;;;2.80;0.63;;;;;;;;;;5064685;28;20545;-73
2022/08/01 05:55:01;;;;;;;0.50;0.33;;;;;;;;;;5050267;28;20033;-73
2022/08/01 05:57:27;;;;;;;1.33;0.50;;;;;;;;;;5050349;28;20028;-73
2022/08/01 05:59:54;;;;;;;0.40;0.40;;;;;;;;;;5050253;28;20035;-73
2022/08/01 06:02:21;;;;;;;0.30;0.23;;;;;;;;;;5049861;28;20064;-73
2022/08/01 06:04:48;;;;;;;0.73;0.43;;;;;;;;;;5067574;28;20035;-73
2022/08/01 06:07:14;;;;;;;0.97;0.43;;;;;;;;;;5075333;28;20082;-73
2022/08/01 06:09:41;;;;;;;1.30;0.30;;;;;;;;;;5075128;28;20031;-73
2022/08/01 06:12:08;;;;;;;0.57;0.50;;;;;;;;;;5075376;28;20385;-73
2022/08/01 06:14:34;;;;;;;0.30;0.30;;;;;;;;;;5075115;28;20036;-73
2022/08/01 06:17:01;;;;;;;2.33;0.67;;;;;;;;;;5057158;28;20048;-73
2022/08/01 06:19:28;;;;;;;0.80;0.30;;;;;;;;;;5065741;28;20483;-73
2022/08/01 06:21:54;;;;;;;0.43;0.23;;;;;;;;;;5069729;28;20037;-73
2022/08/01 06:24:22;;;;;;;0.30;0.27;;;;;;;;;;5069661;28;20055;-73
2022/08/01 06:26:49;;;;;;;0.50;0.40;;;;;;;;;;5073512;28;20021;-72
2022/08/01 06:29:16;;;;;;;1.07;0.53;;;;;;;;;;5061409;28;20037;-72
2022/08/01 06:31:43;;;;;;;0.20;0.20;;;;;;;;;;5054988;28;20132;-72
2022/08/01 06:34:09;;;;;;;8.10;0.67;;;;;;;;;;5054939;28;20029;-72
2022/08/01 06:36:36;;;;;;;12.63;0.80;;;;;;;;;;5055922;28;20082;-72
2022/08/01 06:39:03;;;;;;;0.80;0.50;;;;;;;;;;5050137;28;20076;-72
2022/08/01 06:41:29;;;;;;;1.67;0.53;;;;;;;;;;5049536;28;20081;-72
2022/08/01 06:43:56;;;;;;;2.40;0.63;;;;;;;;;;5049041;28;20021;-72
2022/08/01 06:46:22;;;;;;;0.30;0.30;;;;;;;;;;5062540;28;20039;-73
2022/08/01 06:48:49;;;;;;;0.63;0.50;;;;;;;;;;5072940;28;20044;-72
2022/08/01 06:51:19;;;;;;;8.33;1.13;;;;;;;;;;5074717;28;20111;-72
2022/08/01 06:53:46;;;;;;;1.30;0.70;;;;;;;;;;5074518;28;20487;-72
2022/08/01 06:56:12;;;;;;;0.53;0.30;;;;;;;;;;5074646;28;20134;-72
2022/08/01 06:58:39;;;;;;;2.03;0.93;;;;;;;;;;5055097;28;20085;-72
2022/08/01 07:01:06;;;;;;;1.23;0.70;;;;;;;;;;5049651;28;20033;-72
2022/08/01 07:03:34;;;;;;;2.67;0.70;;;;;;;;;;5050165;28;20549;-73
2022/08/01 07:06:01;;;;;;;0.33;0.20;;;;;;;;;;5048812;28;20036;-72
2022/08/01 07:08:27;;;;;;;1.77;0.77;;;;;;;;;;5049253;28;20379;-72
2022/08/01 07:10:55;;;;;;;1.10;0.70;;;;;;;;;;5052358;28;20471;-72
2022/08/01 07:13:24;;;;;;;0.53;0.47;;;;;;;;;;5070023;28;20033;-72
2022/08/01 07:15:52;;;;;;;0.73;0.67;;;;;;;;;;5072382;28;20039;-72
2022/08/01 07:18:19;;;;;;;1.60;0.60;;;;;;;;;;5054823;28;20154;-72
2022/08/01 07:20:48;;;;;;;0.77;0.53;;;;;;;;;;5054034;28;20028;-72
2022/08/01 07:23:15;;;;;;;2.20;0.97;;;;;;;;;;5050035;28;20156;-72
2022/08/01 07:25:42;;;;;;;0.50;0.43;;;;;;;;;;5048654;28;20032;-72
2022/08/01 07:28:09;;;;;;;1.10;0.47;;;;;;;;;;5062755;28;20067;-72
2022/08/01 07:30:35;;;;;;;1.40;0.63;;;;;;;;;;5064810;28;20029;-72
2022/08/01 07:33:03;;;;;;;0.63;0.43;;;;;;;;;;5071319;28;20082;-72
2022/08/01 07:35:29;;;;;;;0.67;0.60;;;;;;;;;;5073760;28;20030;-72
2022/08/01 07:37:56;;;;;;;1.67;0.57;;;;;;;;;;5073836;28;20023;-72
2022/08/01 07:40:23;;;;;;;0.60;0.47;;;;;;;;;;5067646;28;20032;-72
2022/08/01 07:42:49;;;;;;;1.03;0.53;;;;;;;;;;5053484;28;20476;-72
2022/08/01 07:45:17;;;;;;;0.97;0.80;;;;;;;;;;5050301;28;20051;-72
2022/08/01 07:47:43;;;;;;;1.10;0.50;;;;;;;;;;5048011;28;20092;-72
2022/08/01 07:50:12;;;;;;;2.00;0.90;;;;;;;;;;5047957;28;20120;-72
2022/08/01 07:52:39;;;;;;;0.57;0.30;;;;;;;;;;5055783;28;20036;-72
2022/08/01 07:55:06;;;;;;;0.20;0.20;;;;;;;;;;5070645;28;20028;-72
2022/08/01 07:57:32;;;;;;;1.73;0.80;;;;;;;;;;5073295;28;20418;-72
2022/08/01 07:59:59;;;;;;;0.17;0.17;;;;;;;;;;5073190;28;20527;-72
2022/08/01 08:02:26;;;;;;;0.53;0.40;;;;;;;;;;5073050;28;20031;-72
2022/08/01 08:04:53;;;;;;;0.83;0.43;;;;;;;;;;5070977;28;20025;-73
2022/08/01 08:07:19;;;;;;;0.93;0.47;;;;;;;;;;5070248;28;20474;-72
2022/08/01 08:09:46;;;;;;;0.47;0.37;;;;;;;;;;5067575;28;20055;-72
2022/08/01 08:12:13;;;;;;;0.20;0.10;;;;;;;;;;5067546;28;20028;-72
2022/08/01 08:14:39;;;;;;;0.60;0.47;;;;;;;;;;5067745;28;20471;-72
2022/08/01 08:17:06;;;;;;;0.97;0.60;;;;;;;;;;5059918;28;20546;-72
2022/08/01 08:19:33;;;;;;;0.53;0.40;;;;;;;;;;5052903;28;20017;-72
2022/08/01 08:22:00;;;;;;;2.40;0.47;;;;;;;;;;5052394;28;20037;-72
2022/08/01 08:24:27;;;;;;;0.37;0.10;;;;;;;;;;5052753;28;20079;-72
2022/08/01 08:26:58;;;;;;;0.40;0.40;;;;;;;;;;5052652;28;20531;-72
2022/08/01 08:29:26;;;;;;;0.73;0.37;;;;;;;;;;5059481;28;20032;-72
2022/08/01 08:31:55;;;;;;;3.67;0.37;;;;;;;;;;5067392;28;20559;-72
2022/08/01 08:34:22;;;;;;;1.17;0.70;;;;;;;;;;5067228;28;20032;-72
2022/08/01 08:36:52;;;;;;;0.70;0.47;;;;;;;;;;5067027;28;20371;-72
2022/08/01 08:39:19;;;;;;;0.40;0.20;;;;;;;;;;5068814;28;20013;-72
2022/08/01 08:41:46;;;;;;;0.77;0.40;;;;;;;;;;5068726;28;20033;-72
2022/08/01 08:44:13;;;;;;;1.77;0.67;;;;;;;;;;5072330;28;20027;-72
2022/08/01 08:46:50;;;;;;;1.80;0.50;;;;;;;;;;5054513;28;20352;-72
2022/08/01 08:49:21;;;;;;;0.83;0.50;;;;;;;;;;5072525;28;20028;-72
2022/08/01 08:51:49;;;;;;;0.67;0.43;;;;;;;;;;5049705;28;20119;-72
2022/08/01 08:54:17;;;;;;;2.00;0.57;;;;;;;;;;5046905;28;20488;-72
2022/08/01 08:56:44;;;;;;;0.20;0.20;;;;;;;;;;5048022;28;20020;-72
2022/08/01 08:59:13;;;;;;;0.10;0.10;;;;;;;;;;5047017;28;20108;-72
2022/08/01 09:01:39;;;;;;;0.60;0.43;;;;;;;;;;5049064;28;20108;-72
2022/08/01 09:04:06;;;;;;;0.53;0.30;;;;;;;;;;5053156;28;20521;-72
2022/08/01 09:06:34;;;;;;;0.30;0.20;;;;;;;;;;5052795;28;20021;-72
2022/08/01 09:09:00;;;;;;;0.20;0.20;;;;;;;;;;5052232;28;20087;-72
2022/08/01 09:11:27;;;;;;;1.10;0.30;;;;;;;;;;5052047;28;20021;-72
2022/08/01 09:14:09;;;;;;;0.30;0.23;;;;;;;;;;5051445;28;20025;-72
2022/08/01 09:16:36;;;;;;;0.50;0.40;;;;;;;;;;5048834;28;20029;-72
2022/08/01 09:19:21;;;;;;;1.60;0.70;;;;;;;;;;5049005;28;20555;-72
2022/08/01 09:21:58;;;;;;;0.60;0.40;;;;;;;;;;5051220;28;20041;-72
2022/08/01 09:24:26;;;;;;;1.10;0.77;;;;;;;;;;5054332;28;20096;-72
2022/08/01 09:26:53;;;;;;;2.40;0.73;;;;;;;;;;5056995;28;20032;-72
2022/08/01 09:29:23;;;;;;;0.70;0.40;;;;;;;;;;5056722;28;20427;-72
2022/08/01 09:31:51;;;;;;;1.70;0.70;;;;;;;;;;5056099;28;20531;-72
2022/08/01 09:34:25;;;;;;;0.50;0.30;;;;;;;;;;5056166;28;20108;-72
2022/08/01 09:36:54;;;;;;;0.93;0.57;;;;;;;;;;5052691;28;20063;-72
2022/08/01 09:39:22;;;;;;;1.13;0.70;;;;;;;;;;5051686;28;20434;-72
2022/08/01 09:41:48;;;;;;;0.60;0.40;;;;;;;;;;5050072;28;20036;-72
2022/08/01 09:44:17;;;;;;;0.50;0.47;;;;;;;;;;5050572;28;20072;-72
2022/08/01 09:46:56;;;;;;;0.77;0.27;;;;;;;;;;5054061;28;20017;-72
2022/08/01 09:49:34;;;;;;;0.47;0.40;;;;;;;;;;5067930;28;20024;-71
2022/08/01 09:52:11;;;;;;;0.20;0.20;;;;;;;;;;5075716;28;20417;-72
2022/08/01 09:54:38;;;;;;;0.30;0.27;;;;;;;;;;5075487;28;20042;-72
2022/08/01 09:57:09;;;;;;;0.40;0.37;;;;;;;;;;5075735;28;20025;-72
2022/08/01 09:59:37;;;;;;;0.63;0.40;;;;;;;;;;5070197;28;20059;-72
2022/08/01 10:02:04;;;;;;;0.23;0.23;;;;;;;;;;5053023;28;20083;-72
2022/08/01 10:04:30;;;;;;;0.50;0.37;;;;;;;;;;5050285;28;20425;-72
2022/08/01 10:07:04;;;;;;;1.47;0.50;;;;;;;;;;5049607;28;20545;-72
2022/08/01 10:09:33;;;;;;;0.57;0.40;;;;;;;;;;5054590;28;20017;-72
2022/08/01 10:12:01;;;;;;;0.27;0.27;;;;;;;;;;5061068;28;20119;-72
2022/08/01 10:14:28;;;;;;;2.77;0.70;;;;;;;;;;5062957;28;20033;-72
2022/08/01 10:16:57;;;;;;;3.60;0.50;;;;;;;;;;5055288;28;20468;-72
2022/08/01 10:19:25;;;;;;;1.30;0.63;;;;;;;;;;5055018;28;20025;-72
2022/08/01 10:21:53;;;;;;;0.83;0.63;;;;;;;;;;5049780;28;20040;-72
2022/08/01 10:24:22;;;;;;;0.33;0.33;;;;;;;;;;5060342;28;20025;-72
2022/08/01 10:26:51;;;;;;;0.43;0.43;;;;;;;;;;5069610;28;20028;-72
2022/08/01 10:29:19;;;;;;;1.90;1.23;;;;;;;;;;5069565;28;20040;-72
2022/08/01 10:31:49;;;;;;;1.13;0.87;;;;;;;;;;5069206;28;20464;-72
2022/08/01 10:34:18;;;;;;;1.90;1.03;;;;;;;;;;5054541;28;20067;-72
2022/08/01 10:36:48;;;;;;;1.20;0.80;;;;;;;;;;5054961;28;20025;-72
2022/08/01 10:39:15;;;;;;;0.83;0.70;;;;;;;;;;5054908;28;20075;-72
2022/08/01 10:41:42;;;;;;;3.00;0.70;;;;;;;;;;5058425;28;20545;-72
2022/08/01 10:44:08;;;;;;;4.10;1.50;;;;;;;;;;5067537;28;20068;-72
2022/08/01 10:46:38;;;;;;;1.03;0.60;;;;;;;;;;5069477;28;20043;-72
2022/08/01 10:49:04;;;;;;;1.80;1.03;;;;;;;;;;5068942;28;20024;-72
2022/08/01 10:51:31;;;;;;;3.67;1.03;;;;;;;;;;5069323;28;20090;-72
2022/08/01 10:54:01;;;;;;;0.63;0.50;;;;;;;;;;5060322;28;20080;-72
2022/08/01 10:56:39;;;;;;;0.23;0.23;;;;;;;;;;5054460;28;20444;-72
2022/08/01 10:59:05;;;;;;;0.50;0.37;;;;;;;;;;5054585;28;20075;-72
2022/08/01 11:01:33;;;;;;;0.50;0.50;;;;;;;;;;5053904;28;20043;-72
2022/08/01 11:04:12;;;;;;;0.83;0.70;;;;;;;;;;5054752;28;20025;-72
2022/08/01 11:06:44;;;;;;;1.93;0.73;;;;;;;;;;5049024;28;20032;-72
2022/08/01 11:09:13;;;;;;;0.87;0.77;;;;;;;;;;5049116;28;20555;-72
2022/08/01 11:11:59;;;;;;;0.77;0.60;;;;;;;;;;5049091;28;20075;-72
2022/08/01 11:14:26;;;;;;;2.53;1.60;;;;;;;;;;5069655;28;20100;-72
2022/08/01 11:16:52;;;;;;;3.47;2.13;;;;;;;;;;5074069;28;20024;-72
2022/08/01 11:19:19;;;;;;;1.90;0.90;;;;;;;;;;5073911;28;20108;-72
2022/08/01 11:21:55;;;;;;;20.77;1.23;;;;;;;;;;5073998;28;20032;-72
2022/08/01 11:24:40;;;;;;;1.20;0.63;;;;;;;;;;5069351;28;20476;-72
2022/08/01 11:27:29;;;;;;;0.45;0.40;;;;;;;;;;5051959;28;20096;-72
2022/08/01 11:30:11;;;;;;;0.60;0.43;;;;;;;;;;5035557;28;20048;-72
2022/08/01 11:32:48;;;;;;;0.57;0.53;;;;;;;;;;5048544;28;20048;-72
2022/08/01 11:35:14;;;;;;;0.63;0.60;;;;;;;;;;5048347;28;20048;-72
2022/08/01 11:37:41;;;;;;;0.83;0.70;;;;;;;;;;5064010;28;20024;-72
2022/08/01 11:40:25;;;;;;;1.37;0.80;;;;;;;;;;5073498;28;20016;-72
2022/08/01 11:43:12;;;;;;;0.40;0.40;;;;;;;;;;5073552;28;20036;-72
2022/08/01 11:45:52;;;;;;;2.80;1.80;;;;;;;;;;5059387;28;20372;-72
2022/08/01 11:48:20;;;;;;;5.47;1.67;;;;;;;;;;5070541;28;20025;-72
2022/08/01 11:50:47;;;;;;;0.80;0.70;;;;;;;;;;5048242;28;20036;-71
2022/08/01 11:53:15;;;;;;;0.73;0.70;;;;;;;;;;5047975;28;21246;-72
2022/08/01 11:55:48;;;;;;;1.30;1.03;;;;;;;;;;5047994;28;20199;-71
2022/08/01 11:58:16;;;;;;;0.87;0.60;;;;;;;;;;5047938;28;20039;-72
2022/08/01 12:00:42;;;;;;;1.23;0.80;;;;;;;;;;5056020;28;20020;-71
2022/08/01 12:03:09;;;;;;;0.63;0.60;;;;;;;;;;5062469;28;20039;-72
2022/08/01 12:05:39;;;;;;;1.33;0.63;;;;;;;;;;5073179;28;20025;-72
2022/08/01 12:08:06;;;;;;;0.97;0.73;;;;;;;;;;5073169;28;20100;-71
2022/08/01 12:10:36;;;;;;;1.13;0.73;;;;;;;;;;5072812;28;20020;-72
2022/08/01 12:13:04;;;;;;;0.80;0.50;;;;;;;;;;5060083;28;21682;-71
2022/08/01 12:15:35;;;;;;;0.80;0.60;;;;;;;;;;5047274;28;20017;-72
2022/08/01 12:18:06;;;;;;;2.27;0.90;;;;;;;;;;5047652;28;20025;-72
2022/08/01 12:20:34;;;;;;;1.53;0.80;;;;;;;;;;5047670;28;20013;-72
2022/08/01 12:23:02;;;;;;;0.30;0.20;;;;;;;;;;5052516;28;20122;-72
2022/08/01 12:25:29;;;;;;;1.40;1.03;;;;;;;;;;5065915;28;20082;-71
2022/08/01 12:27:56;;;;;;;1.00;0.50;;;;;;;;;;5072606;28;20036;-71
2022/08/01 12:30:26;;;;;;;0.40;0.40;;;;;;;;;;5069960;28;20527;-72
2022/08/01 12:32:54;;;;;;;2.23;1.03;;;;;;;;;;5052584;28;20017;-71
2022/08/01 12:35:23;;;;;;;0.67;0.60;;;;;;;;;;5047360;28;20024;-72
2022/08/01 12:37:51;;;;;;;1.40;0.80;;;;;;;;;;5065388;28;20111;-71
2022/08/01 12:40:22;;;;;;;0.53;0.50;;;;;;;;;;5067326;28;20021;-71
2022/08/01 12:42:49;;;;;;;0.70;0.60;;;;;;;;;;5066562;28;20476;-72
2022/08/01 12:45:18;;;;;;;0.67;0.40;;;;;;;;;;5072048;28;20020;-72
2022/08/01 12:47:45;;;;;;;2.17;0.70;;;;;;;;;;5068580;28;20028;-72
2022/08/01 12:50:14;;;;;;;0.97;0.80;;;;;;;;;;5052462;28;20528;-71
2022/08/01 12:52:41;;;;;;;1.10;0.70;;;;;;;;;;5052342;28;20472;-72
2022/08/01 12:55:21;;;;;;;1.17;0.67;;;;;;;;;;5051945;28;20033;-71
2022/08/01 12:57:52;;;;;;;1.97;0.80;;;;;;;;;;5046400;28;20052;-72
2022/08/01 13:00:21;;;;;;;1.37;0.80;;;;;;;;;;5047772;28;20028;-71
2022/08/01 13:02:49;;;;;;;3.03;1.40;;;;;;;;;;5046849;28;20025;-71
2022/08/01 13:05:17;;;;;;;3.33;1.20;;;;;;;;;;5046925;28;20108;-71
2022/08/01 13:07:46;;;;;;;0.90;0.70;;;;;;;;;;5051964;28;20021;-71
2022/08/01 13:10:13;;;;;;;1.90;1.30;;;;;;;;;;5071117;28;20036;-71
2022/08/01 13:12:41;;;;;;;2.57;1.47;;;;;;;;;;5072311;28;20019;-71
2022/08/01 13:15:17;;;;;;;2.37;1.10;;;;;;;;;;5072212;28;20021;-71
2022/08/01 13:17:44;;;;;;;1.87;1.30;;;;;;;;;;5070980;28;20027;-71
2022/08/01 13:20:21;;;;;;;1.37;1.00;;;;;;;;;;5049095;28;20407;-71
2022/08/01 13:22:48;;;;;;;1.03;0.80;;;;;;;;;;5047870;28;20116;-72
2022/08/01 13:25:16;;;;;;;0.60;0.50;;;;;;;;;;5046786;28;20025;-71
2022/08/01 13:27:43;;;;;;;2.63;0.90;;;;;;;;;;5048964;28;20020;-71
2022/08/01 13:30:16;;;;;;;1.03;0.60;;;;;;;;;;5056846;28;20070;-71
2022/08/01 13:32:44;;;;;;;1.90;0.80;;;;;;;;;;5071888;28;20020;-72
2022/08/01 13:35:12;;;;;;;1.03;0.63;;;;;;;;;;5071713;28;20026;-71
2022/08/01 13:37:39;;;;;;;1.07;0.70;;;;;;;;;;5055381;28;20049;-72
2022/08/01 13:40:09;;;;;;;0.37;0.33;;;;;;;;;;5049610;28;20033;-72
2022/08/01 13:42:36;;;;;;;1.00;0.70;;;;;;;;;;5046907;28;20036;-72
2022/08/01 13:45:07;;;;;;;2.03;1.13;;;;;;;;;;5047103;28;20021;-71
2022/08/01 13:47:33;;;;;;;1.57;1.10;;;;;;;;;;5046782;28;20044;-72
2022/08/01 13:50:02;;;;;;;1.50;0.83;;;;;;;;;;5047122;28;20488;-71
2022/08/01 13:52:29;;;;;;;2.03;0.77;;;;;;;;;;5051627;28;20033;-72
2022/08/01 13:54:55;;;;;;;2.13;1.10;;;;;;;;;;5051706;28;20051;-71
2022/08/01 13:57:22;;;;;;;2.47;0.93;;;;;;;;;;5061777;28;20024;-72
2022/08/01 13:59:49;;;;;;;2.40;1.20;;;;;;;;;;5071677;28;20028;-71
2022/08/01 14:02:16;;;;;;;1.60;1.03;;;;;;;;;;5068834;28;20045;-72
2022/08/01 14:04:42;;;;;;;4.47;1.10;;;;;;;;;;5065741;28;20096;-72
2022/08/01 14:07:09;;;;;;;0.87;0.63;;;;;;;;;;5066521;28;20029;-72
2022/08/01 14:09:36;;;;;;;1.00;0.80;;;;;;;;;;5069663;28;20036;-72
2022/08/01 14:12:02;;;;;;;1.70;1.10;;;;;;;;;;5057317;28;20070;-71
2022/08/01 14:14:30;;;;;;;2.40;1.40;;;;;;;;;;5055256;28;20056;-72
2022/08/01 14:16:57;;;;;;;4.10;1.17;;;;;;;;;;5055128;28;20021;-71
2022/08/01 14:19:23;;;;;;;3.83;1.60;;;;;;;;;;5054858;28;20024;-72
2022/08/01 14:21:52;;;;;;;2.17;1.17;;;;;;;;;;5055062;28;20029;-72
2022/08/01 14:24:19;;;;;;;1.50;1.10;;;;;;;;;;5069336;28;20021;-72
2022/08/01 14:26:45;;;;;;;1.30;1.00;;;;;;;;;;5049411;28;20059;-72
2022/08/01 14:29:12;;;;;;;1.80;1.27;;;;;;;;;;5049468;28;20017;-72
2022/08/01 14:31:39;;;;;;;1.87;1.10;;;;;;;;;;5049543;28;20095;-72
2022/08/01 14:34:05;;;;;;;1.37;0.97;;;;;;;;;;5050258;28;20027;-72
2022/08/01 14:36:32;;;;;;;1.47;1.03;;;;;;;;;;5054266;28;20368;-72
2022/08/01 14:38:59;;;;;;;1.53;0.87;;;;;;;;;;5054844;28;20044;-72
2022/08/01 14:41:26;;;;;;;1.00;0.70;;;;;;;;;;5054725;28;20361;-72
2022/08/01 14:43:53;;;;;;;1.33;0.90;;;;;;;;;;5056341;28;20498;-71
2022/08/01 14:46:19;;;;;;;2.33;1.00;;;;;;;;;;5074566;28;20025;-72
2022/08/01 14:48:46;;;;;;;5.13;0.80;;;;;;;;;;5069264;28;20170;-72
2022/08/01 14:51:13;;;;;;;1.10;0.60;;;;;;;;;;5069225;28;20025;-72